AGROMETEOROLOŠKI PORTAL

vinorodna pokrajina

Temelj dobrega kmetovanja

Pregled podatkov za lokacijo Kostanjevica na Krki, meteorološka postaja 855712

Pregled senzorjev na lokaciji

ID Ime Zadnja
vrednost
Datum in čas
meritve
(lokalni čas)
Tip
senzorja
4337 Omočenost lista (1,5 m) (U) 0 U 1.2.2023 12:30 A730WET
5066 Padavine (mm) 0 mm 1.2.2023 12:30 Generic 0.2 mm
3851 Relativna zračna vlaga (2 m) (%RH) 53 %RH 1.2.2023 12:30 50YA
3850 Temperatura (2 m) (°C) 8,6 °C 1.2.2023 12:30 50YA

Pregled podatkov zadnjih 24 ur

Zap.
št.
Datum in čas
(lokalni čas)
Kostanjevica na Krki
Omočenost
lista
(1,5
m)
Padavine Relativna
zračna
vlaga
(2
m)
Temperatura
(2
m)
1 1.2.2023 12:30 0 0 52,6 8,6
2 1.2.2023 12:00 0 0 53,6 8,4
3 1.2.2023 11:30 0 0 61,2 7,3
4 1.2.2023 11:00 0 0 64,4 6,4
5 1.2.2023 10:30 1 0 70,3 4
6 1.2.2023 10:00 10 0 72,5 2,1
7 1.2.2023 09:30 7 0 79,9 -0,2
8 1.2.2023 09:00 2 0 80,1 -0,5
9 1.2.2023 08:30 0 0 89,1 -2,6
10 1.2.2023 08:00 0 0 93,5 -3,8
11 1.2.2023 07:30 0 0 92,4 -3,7
12 1.2.2023 07:00 0 0 90,7 -3,5
13 1.2.2023 06:30 0 0 89,8 -3,2
14 1.2.2023 06:00 0 0 89,6 -3
15 1.2.2023 05:30 0 0 92,1 -3,5
16 1.2.2023 05:00 0 0 87 -2,8
17 1.2.2023 04:30 0 0 85,5 -2,3
18 1.2.2023 04:00 0 0 87,5 -2,5
19 1.2.2023 03:30 0 0 89,1 -2,6
20 1.2.2023 03:00 0 0 88,9 -2,3
21 1.2.2023 02:30 0 0 89,9 -2,2
22 1.2.2023 02:00 0 0 89,4 -2,3
23 1.2.2023 01:30 0 0 83,7 -1,4
24 1.2.2023 01:00 0 0 87,3 -1,6
25 1.2.2023 00:30 1 0 81,5 -0,7
26 1.2.2023 00:00 1 0 86,3 -0,9
27 31.1.2023 23:30 3 0 88,8 -1,6
28 31.1.2023 23:00 4 0 85,3 -0,7
29 31.1.2023 22:30 0 0 82,2 0
30 31.1.2023 22:00 0 0 74,9 0,8
31 31.1.2023 21:30 0 0 71,6 1,4
32 31.1.2023 21:00 0 0 71,5 1,8
33 31.1.2023 20:30 0 0 71,7 2
34 31.1.2023 20:00 0 0 67,8 2,7
35 31.1.2023 19:30 0 0 66,7 3
36 31.1.2023 19:00 0 0 65,9 3,1
37 31.1.2023 18:30 0 0 54 5,3
38 31.1.2023 18:00 0 0 61,3 4,5
39 31.1.2023 17:30 0 0 68,3 4,3
40 31.1.2023 17:00 0 0 64,1 5,1
41 31.1.2023 16:30 0 0 55,8 6,5
42 31.1.2023 16:00 0 0 52,9 6,4
43 31.1.2023 15:30 0 0 40,1 9,5
44 31.1.2023 15:00 0 0 41 9,6
45 31.1.2023 14:30 0 0 45,7 9,9
46 31.1.2023 14:00 0 0 53,1 9,6
47 31.1.2023 13:30 0 0 55,3 8,9
48 31.1.2023 13:00 0 0 56,9 8,2